Time;durP1;ratioP1;P1;durP2;ratioP2;P2;SDS_P1;SDS_P2;PMS_P1;PMS_P2;Temp;Humidity;BMP_temperature;BMP_pressure;BME280_temperature;BME280_humidity;BME280_pressure;Samples;Min_cycle;Max_cycle;Signal;HPM_P1;HPM_P2
2023/03/01 00:03:07;;;;;;;20.98;13.73;;;;;;;-1.62;53.96;101133.47;10352597;28;20064;-80
2023/03/01 00:08:09;;;;;;;21.05;13.15;;;;;;;-1.65;54.06;101133.44;10353298;28;20061;-80
2023/03/01 00:13:11;;;;;;;21.98;14.48;;;;;;;-1.76;54.24;101127.38;10355324;28;20058;-80
2023/03/01 00:18:12;;;;;;;21.08;14.45;;;;;;;-1.79;54.45;101129.91;10348961;28;20080;-80
2023/03/01 00:23:14;;;;;;;24.20;14.80;;;;;;;-1.79;54.34;101129.91;10352640;28;20100;-80
2023/03/01 00:28:16;;;;;;;20.67;13.75;;;;;;;-1.84;54.72;101125.56;10346865;28;20046;-80
2023/03/01 00:33:18;;;;;;;21.17;13.27;;;;;;;-1.88;54.73;101123.84;10354557;28;20179;-80
2023/03/01 00:38:20;;;;;;;24.77;13.00;;;;;;;-1.89;54.81;101124.66;10353294;28;20125;-81
2023/03/01 00:43:21;;;;;;;22.15;12.70;;;;;;;-1.97;55.05;101116.91;10348818;28;20084;-81
2023/03/01 00:48:23;;;;;;;21.67;13.63;;;;;;;-1.98;54.98;101113.47;10345965;28;20403;-80
2023/03/01 00:53:25;;;;;;;19.85;13.20;;;;;;;-2.03;55.25;101114.28;10352548;28;20053;-80
2023/03/01 00:58:27;;;;;;;17.83;12.30;;;;;;;-2.09;55.17;101104.84;10353738;28;20045;-81
2023/03/01 01:03:29;;;;;;;18.30;12.35;;;;;;;-2.13;55.36;101103.09;10351317;28;20458;-80
2023/03/01 01:08:30;;;;;;;17.30;11.60;;;;;;;-2.17;55.47;101098.78;10351879;28;20503;-80
2023/03/01 01:13:32;;;;;;;15.25;11.48;;;;;;;-2.20;55.91;101100.44;10351819;28;20052;-80
2023/03/01 01:18:34;;;;;;;18.20;12.10;;;;;;;-2.31;55.84;101094.34;10347742;28;20060;-81
2023/03/01 01:23:37;;;;;;;18.17;12.10;;;;;;;-2.26;55.84;101092.69;10348179;28;20499;-80
2023/03/01 01:28:39;;;;;;;18.42;12.90;;;;;;;-2.29;56.07;101092.66;10351399;28;20136;-80
2023/03/01 01:33:41;;;;;;;20.20;13.82;;;;;;;-2.34;56.11;101082.38;10350357;28;20057;-80
2023/03/01 01:38:43;;;;;;;20.65;12.82;;;;;;;-2.39;56.16;101081.47;10348273;28;20046;-80
2023/03/01 01:43:48;;;;;;;19.15;12.73;;;;;;;-2.47;56.40;101085.63;10343665;28;20992;-80
2023/03/01 01:48:57;;;;;;;19.17;12.75;;;;;;;-2.46;56.36;101087.34;10341362;28;20466;-80
2023/03/01 01:54:00;;;;;;;18.92;11.90;;;;;;;-2.49;56.64;101084.75;10344008;28;20072;-80
2023/03/01 01:59:02;;;;;;;18.50;13.18;;;;;;;-2.58;56.92;101086.34;10350255;28;20050;-80
2023/03/01 02:04:06;;;;;;;19.27;11.90;;;;;;;-2.55;57.05;101071.88;10347881;28;20056;-80
2023/03/01 02:09:13;;;;;;;17.63;11.90;;;;;;;-2.53;57.20;101072.75;10348946;28;20060;-80
2023/03/01 02:14:15;;;;;;;19.13;12.48;;;;;;;-2.53;56.96;101064.22;10346383;28;20054;-80
2023/03/01 02:19:28;;;;;;;20.35;12.23;;;;;;;-2.59;57.50;101065.00;10349350;28;20703;-80
2023/03/01 02:24:30;;;;;;;17.27;12.23;;;;;;;-2.61;57.10;101066.69;10348783;28;20042;-80
2023/03/01 02:29:32;;;;;;;18.83;12.13;;;;;;;-2.66;57.36;101060.66;10347278;28;21075;-80
2023/03/01 02:34:34;;;;;;;18.98;11.52;;;;;;;-2.73;57.67;101056.28;10350827;28;20058;-80
2023/03/01 02:39:47;;;;;;;16.58;11.80;;;;;;;-2.89;58.15;101044.16;10350501;28;20060;-80
2023/03/01 02:44:49;;;;;;;18.17;12.00;;;;;;;-2.88;57.93;101046.72;10349741;28;20057;-81
2023/03/01 02:49:51;;;;;;;14.93;11.65;;;;;;;-2.86;57.68;101044.22;10349227;28;20053;-80
2023/03/01 02:55:09;;;;;;;18.70;13.00;;;;;;;-2.85;57.79;101033.13;10356996;28;20058;-80
2023/03/01 03:00:20;;;;;;;23.08;13.52;;;;;;;-2.85;57.90;101026.31;10348150;28;20046;-80
2023/03/01 03:05:30;;;;;;;19.40;12.70;;;;;;;-2.83;57.80;101027.19;10378611;28;20418;-80
2023/03/01 03:10:36;;;;;;;15.32;11.48;;;;;;;-2.93;58.02;101025.34;10360297;28;20879;-80
2023/03/01 03:15:39;;;;;;;18.05;11.85;;;;;;;-3.03;58.43;101009.88;10358279;28;21029;-80
2023/03/01 03:20:42;;;;;;;18.15;12.02;;;;;;;-3.01;58.59;101003.06;10359731;28;20050;-80
2023/03/01 03:25:44;;;;;;;19.90;11.88;;;;;;;-2.99;58.36;101003.94;10366621;28;20058;-80
2023/03/01 03:31:08;;;;;;;18.42;12.43;;;;;;;-3.03;58.96;101002.19;10360091;28;20491;-80
2023/03/01 03:36:17;;;;;;;17.85;12.27;;;;;;;-3.05;58.76;101002.19;10357987;28;20435;-80
2023/03/01 03:41:19;;;;;;;19.38;13.23;;;;;;;-3.06;58.45;100985.09;10360927;28;20060;-80
2023/03/01 03:46:21;;;;;;;19.13;13.13;;;;;;;-3.07;58.42;100978.28;10355189;28;20050;-80
2023/03/01 03:51:22;;;;;;;18.35;12.75;;;;;;;-3.07;58.48;100965.47;10359483;28;20061;-80
2023/03/01 03:56:25;;;;;;;18.95;12.77;;;;;;;-3.16;58.77;100960.25;10356174;28;20058;-80
2023/03/01 04:01:29;;;;;;;19.25;12.27;;;;;;;-3.22;58.89;100965.28;10356289;28;20088;-81
2023/03/01 04:06:31;;;;;;;20.50;12.90;;;;;;;-3.22;58.70;100967.00;10346606;28;20041;-81
2023/03/01 04:11:34;;;;;;;19.10;13.43;;;;;;;-3.26;59.22;100967.81;10352387;28;20092;-80
2023/03/01 04:16:36;;;;;;;20.58;13.18;;;;;;;-3.21;59.20;100969.59;10349476;28;20415;-80
2023/03/01 04:21:38;;;;;;;21.00;13.95;;;;;;;-3.19;58.99;100975.56;10352193;28;20411;-80
2023/03/01 04:26:39;;;;;;;17.92;13.00;;;;;;;-3.24;58.87;100977.19;10352193;28;20397;-80
2023/03/01 04:31:41;;;;;;;21.75;13.25;;;;;;;-3.30;59.22;100976.25;10350397;28;20529;-80
2023/03/01 04:36:43;;;;;;;18.45;12.00;;;;;;;-3.32;59.25;100971.13;10352812;28;20049;-80
2023/03/01 04:41:44;;;;;;;18.35;13.57;;;;;;;-3.35;59.04;100976.22;10349999;28;20057;-80
2023/03/01 04:46:49;;;;;;;18.15;13.50;;;;;;;-3.51;59.52;100973.44;10352506;28;20068;-80
2023/03/01 04:51:51;;;;;;;24.60;15.73;;;;;;;-3.49;59.63;100984.56;10353798;28;20060;-80
2023/03/01 04:56:53;;;;;;;20.40;14.50;;;;;;;-3.69;59.57;100980.00;10350102;28;20085;-80
2023/03/01 05:01:56;;;;;;;24.77;15.18;;;;;;;-3.60;59.54;100976.72;10353251;28;20094;-80
2023/03/01 05:06:58;;;;;;;25.27;16.17;;;;;;;-3.54;59.53;100970.81;10349327;28;20053;-80
2023/03/01 05:12:00;;;;;;;21.92;15.07;;;;;;;-3.47;59.30;100964.97;10351516;28;20092;-80
2023/03/01 05:17:03;;;;;;;31.30;16.75;;;;;;;-3.47;59.36;100955.59;10351840;28;20515;-80
2023/03/01 05:22:05;;;;;;;26.27;16.88;;;;;;;-3.48;59.24;100959.00;10351956;28;20054;-80
2023/03/01 05:27:07;;;;;;;26.70;16.45;;;;;;;-3.53;59.19;100973.44;10345063;28;20049;-80
2023/03/01 05:32:09;;;;;;;22.38;14.55;;;;;;;-3.63;59.50;100963.06;10343113;28;20131;-80
2023/03/01 05:37:11;;;;;;;25.40;16.63;;;;;;;-3.60;59.66;100965.63;10344749;28;20461;-80
2023/03/01 05:42:15;;;;;;;23.60;16.00;;;;;;;-3.54;59.79;100953.78;10345721;28;20057;-79
2023/03/01 05:47:18;;;;;;;21.98;14.80;;;;;;;-3.69;59.78;100959.56;10347383;28;20045;-81
2023/03/01 05:52:35;;;;;;;21.85;14.48;;;;;;;-3.86;60.78;100963.59;10345187;28;20104;-80
2023/03/01 05:57:37;;;;;;;20.83;14.30;;;;;;;-3.90;60.16;100964.38;10347589;28;20076;-81
2023/03/01 06:02:39;;;;;;;25.73;16.33;;;;;;;-3.84;60.28;100953.38;10344927;28;20514;-80
2023/03/01 06:07:42;;;;;;;25.85;17.08;;;;;;;-3.83;60.15;100950.84;10345622;28;20038;-79
2023/03/01 06:12:44;;;;;;;27.10;17.05;;;;;;;-3.81;60.31;100945.75;10338646;28;20109;-79
2023/03/01 06:17:47;;;;;;;23.15;16.48;;;;;;;-3.73;60.11;100942.47;10342348;28;20137;-80
2023/03/01 06:22:56;;;;;;;50.45;18.77;;;;;;;-3.70;60.15;100945.06;10336730;28;20053;-81
2023/03/01 06:28:04;;;;;;;29.67;18.05;;;;;;;-3.70;60.26;100957.84;10354310;28;20487;-81
2023/03/01 06:33:07;;;;;;;24.75;16.00;;;;;;;-3.57;59.93;100953.78;10353173;28;20049;-79
2023/03/01 06:38:10;;;;;;;28.88;18.60;;;;;;;-3.51;59.71;100953.84;10352922;28;20046;-80
2023/03/01 06:43:12;;;;;;;27.05;18.38;;;;;;;-3.49;59.85;100959.84;10357227;28;20061;-82
2023/03/01 06:48:17;;;;;;;25.60;16.75;;;;;;;-3.29;59.66;100954.97;10346678;28;20157;-81
2023/03/01 06:53:18;;;;;;;25.23;17.63;;;;;;;-3.28;59.50;100952.44;10350474;28;20536;-81
2023/03/01 06:58:20;;;;;;;25.23;17.15;;;;;;;-3.12;59.32;100948.38;10346384;28;20050;-80
2023/03/01 07:03:28;;;;;;;25.42;17.58;;;;;;;-2.88;59.30;100948.63;10349968;28;20056;-80
2023/03/01 07:08:30;;;;;;;26.85;18.48;;;;;;;-2.88;58.80;100946.06;10348792;28;20431;-80
2023/03/01 07:13:34;;;;;;;31.50;19.65;;;;;;;-2.77;58.96;100944.47;10349191;28;20054;-80
2023/03/01 07:18:36;;;;;;;31.92;19.98;;;;;;;-2.50;58.81;100946.44;10349584;28;20038;-81
2023/03/01 07:23:38;;;;;;;32.20;19.70;;;;;;;-2.35;58.66;100937.19;10356047;28;20052;-80
2023/03/01 07:28:40;;;;;;;52.15;19.35;;;;;;;-2.01;58.29;100926.34;10355768;28;20930;-80
2023/03/01 07:33:42;;;;;;;58.38;20.15;;;;;;;-1.81;58.23;100928.16;10354843;28;20054;-81
2023/03/01 07:38:43;;;;;;;37.85;19.23;;;;;;;-1.49;57.91;100930.06;10353591;28;20057;-81
2023/03/01 07:43:45;;;;;;;32.65;18.85;;;;;;;-1.08;57.33;100929.38;10351605;28;20054;-81
2023/03/01 07:48:47;;;;;;;29.10;19.20;;;;;;;-0.52;56.85;100926.06;10352327;28;20038;-81
2023/03/01 07:53:48;;;;;;;40.30;21.35;;;;;;;-0.01;56.63;100917.50;10353774;28;20072;-81
2023/03/01 07:58:50;;;;;;;30.40;17.80;;;;;;;0.34;55.68;100917.44;10353852;28;20046;-81
2023/03/01 08:03:52;;;;;;;34.75;19.40;;;;;;;0.54;55.66;100908.75;10348162;28;20050;-80
2023/03/01 08:08:58;;;;;;;29.70;19.55;;;;;;;0.87;54.78;100904.34;10351023;28;20491;-80
2023/03/01 08:13:59;;;;;;;24.52;15.32;;;;;;;1.02;53.75;100907.69;10351612;28;20053;-80
2023/03/01 08:19:06;;;;;;;27.13;16.48;;;;;;;1.37;52.31;100902.31;10350674;28;20076;-80
2023/03/01 08:24:10;;;;;;;23.85;16.25;;;;;;;1.50;52.27;100908.25;10352142;28;20050;-81
2023/03/01 08:29:11;;;;;;;28.23;17.08;;;;;;;1.43;51.89;100909.13;10347196;28;20046;-79
2023/03/01 08:34:16;;;;;;;24.70;16.40;;;;;;;1.65;51.30;100908.97;10350644;28;20141;-80
2023/03/01 08:39:19;;;;;;;27.42;17.52;;;;;;;1.67;50.69;100911.53;10346229;28;20136;-80
2023/03/01 08:44:21;;;;;;;28.90;17.08;;;;;;;1.77;50.73;100905.41;10350062;28;20177;-80
2023/03/01 08:49:24;;;;;;;24.27;16.58;;;;;;;1.71;50.16;100903.75;10347457;28;20054;-80
2023/03/01 08:54:26;;;;;;;22.20;16.05;;;;;;;1.75;50.15;100889.97;10347769;28;20135;-79
2023/03/01 08:59:29;;;;;;;24.52;16.17;;;;;;;1.87;49.72;100886.44;10349975;28;20042;-80
2023/03/01 09:04:31;;;;;;;22.20;16.20;;;;;;;2.02;49.37;100875.97;10350646;28;20061;-79
2023/03/01 09:09:33;;;;;;;26.70;16.23;;;;;;;2.42;48.82;100869.50;10348914;28;20569;-81
2023/03/01 09:14:37;;;;;;;22.38;15.48;;;;;;;2.42;48.24;100864.31;10348556;28;20140;-80
2023/03/01 09:19:38;;;;;;;23.85;15.80;;;;;;;2.48;48.69;100860.84;10343295;28;20425;-80
2023/03/01 09:24:40;;;;;;;31.75;16.65;;;;;;;2.91;47.83;100865.41;10348399;28;20045;-81
2023/03/01 09:29:42;;;;;;;22.08;15.52;;;;;;;3.00;47.66;100854.97;10351425;28;20050;-80
2023/03/01 09:35:04;;;;;;;21.23;15.05;;;;;;;3.17;46.92;100851.28;10345991;28;20062;-80
2023/03/01 09:40:07;;;;;;;24.52;15.27;;;;;;;2.94;46.74;100839.53;10348899;28;20057;-80
2023/03/01 09:45:21;;;;;;;22.02;14.57;;;;;;;3.25;46.30;100846.84;10344549;28;20826;-80
2023/03/01 09:50:23;;;;;;;23.17;14.18;;;;;;;3.40;46.92;100841.41;10346259;28;20159;-80
2023/03/01 09:55:42;;;;;;;28.75;13.88;;;;;;;3.42;44.64;100840.50;10347078;28;20133;-79
2023/03/01 10:00:49;;;;;;;18.05;13.65;;;;;;;3.45;44.00;100835.31;10351626;28;20042;-80
2023/03/01 10:06:09;;;;;;;21.80;13.98;;;;;;;3.91;44.82;100832.78;10357208;28;20056;-80
2023/03/01 10:11:30;;;;;;;18.90;13.20;;;;;;;3.69;43.28;100818.50;10357766;28;20072;-80
2023/03/01 10:16:53;;;;;;;19.13;12.43;;;;;;;3.47;43.02;100809.41;10350764;28;20430;-79
2023/03/01 10:22:02;;;;;;;17.65;12.38;;;;;;;3.74;43.62;100794.25;10352640;28;20052;-79
2023/03/01 10:27:19;;;;;;;17.65;12.38;;;;;;;3.95;43.57;100787.84;10354338;28;20057;-79
2023/03/01 10:32:21;;;;;;;18.35;12.50;;;;;;;4.07;43.50;100790.22;10353802;28;20059;-80
2023/03/01 10:37:27;;;;;;;16.30;11.65;;;;;;;3.93;43.13;100789.63;10348437;28;21015;-80
2023/03/01 10:42:32;;;;;;;18.33;12.23;;;;;;;4.12;42.60;100774.59;10357833;28;20057;-80
2023/03/01 10:47:33;;;;;;;18.70;12.35;;;;;;;4.28;41.62;100770.81;10356538;28;20484;-79
2023/03/01 10:52:41;;;;;;;18.83;12.80;;;;;;;4.45;41.80;100759.22;10355486;28;20058;-80
2023/03/01 10:57:42;;;;;;;16.80;11.48;;;;;;;4.32;41.99;100755.19;10351060;28;20136;-79
2023/03/01 11:03:03;;;;;;;17.05;11.43;;;;;;;4.17;40.96;100763.25;10353765;28;20053;-80
2023/03/01 11:08:10;;;;;;;16.85;11.55;;;;;;;4.25;41.33;100757.94;10347676;28;20054;-82
2023/03/01 11:13:18;;;;;;;16.40;11.32;;;;;;;4.32;41.02;100756.91;10349832;28;20164;-82
2023/03/01 11:18:22;;;;;;;17.70;11.55;;;;;;;4.29;42.22;100747.47;10347660;28;20077;-82
2023/03/01 11:23:38;;;;;;;17.73;12.02;;;;;;;4.32;42.50;100742.22;10348109;28;20970;-82
2023/03/01 11:28:54;;;;;;;17.40;12.25;;;;;;;4.45;41.02;100728.13;10348012;28;20057;-82
2023/03/01 11:34:05;;;;;;;17.95;11.45;;;;;;;4.48;41.50;100722.88;10346797;28;20054;-81
2023/03/01 11:39:25;;;;;;;16.98;10.98;;;;;;;4.56;40.66;100708.00;10352167;28;20062;-82
2023/03/01 11:44:39;;;;;;;16.20;11.23;;;;;;;4.58;40.15;100711.41;10344677;28;20058;-81
2023/03/01 11:49:49;;;;;;;18.08;11.30;;;;;;;4.69;41.19;100699.09;10344196;28;20137;-81
2023/03/01 11:55:19;;;;;;;16.17;10.90;;;;;;;4.87;40.76;100710.72;10343912;28;20490;-82
2023/03/01 12:00:41;;;;;;;15.68;10.40;;;;;;;4.93;40.13;100684.66;10348344;28;20053;-81
2023/03/01 12:06:23;;;;;;;15.77;11.15;;;;;;;4.86;39.34;100680.50;10343131;28;20471;-82
2023/03/01 12:11:50;;;;;;;16.00;10.85;;;;;;;5.31;39.68;100665.56;10349298;28;20046;-83
2023/03/01 12:17:02;;;;;;;14.75;10.32;;;;;;;5.38;39.84;100660.16;10344447;28;20140;-82
2023/03/01 12:22:25;;;;;;;15.55;9.75;;;;;;;5.32;38.11;100651.69;10349230;28;20137;-82
2023/03/01 12:27:36;;;;;;;13.50;9.30;;;;;;;5.47;37.94;100641.72;10345014;28;20042;-81
2023/03/01 12:33:11;;;;;;;14.32;9.35;;;;;;;5.53;37.31;100632.94;10349369;28;20061;-81
2023/03/01 12:38:13;;;;;;;15.10;9.23;;;;;;;5.56;38.04;100625.06;10340935;28;20806;-81
2023/03/01 12:49:19;;;;;;;12.95;8.55;;;;;;;5.79;36.33;100601.91;10344700;28;20142;-79
2023/03/01 12:54:31;;;;;;;13.82;7.95;;;;;;;5.96;35.07;100597.03;10340216;28;20050;-80
2023/03/01 12:59:50;;;;;;;12.85;8.18;;;;;;;5.99;37.03;100588.31;10344199;28;20053;-80
2023/03/01 13:05:30;;;;;;;13.23;7.82;;;;;;;6.04;36.96;100583.84;10345791;28;20149;-81
2023/03/01 13:10:45;;;;;;;12.38;8.45;;;;;;;6.15;36.55;100568.75;10338263;28;20165;-81
2023/03/01 13:15:49;;;;;;;13.32;8.20;;;;;;;6.31;36.79;100557.88;10346268;28;20157;-80
2023/03/01 13:20:53;;;;;;;12.27;7.78;;;;;;;6.66;36.40;100561.03;10335837;28;20076;-80
2023/03/01 13:26:13;;;;;;;11.98;7.63;;;;;;;6.63;35.20;100554.22;10342025;28;20054;-80
2023/03/01 13:31:15;;;;;;;12.88;7.82;;;;;;;6.37;35.58;100563.78;10346637;28;20054;-80
2023/03/01 13:36:32;;;;;;;11.63;7.88;;;;;;;6.28;34.60;100554.53;10348261;28;20053;-80
2023/03/01 13:41:41;;;;;;;12.85;7.95;;;;;;;6.46;34.75;100547.88;10346733;28;20045;-81
2023/03/01 13:46:59;;;;;;;11.20;8.35;;;;;;;6.54;34.63;100545.84;10342413;28;20096;-81
2023/03/01 13:52:02;;;;;;;13.95;7.80;;;;;;;6.80;35.63;100564.88;10343741;28;20038;-80
2023/03/01 13:57:05;;;;;;;10.93;7.65;;;;;;;6.75;35.36;100533.00;10335342;28;20068;-82
2023/03/01 14:02:12;;;;;;;10.85;6.88;;;;;;;6.84;34.01;100537.00;10352767;28;20104;-81
2023/03/01 14:07:20;;;;;;;12.02;7.80;;;;;;;6.68;33.81;100515.91;10340647;28;20060;-81
2023/03/01 14:12:54;;;;;;;10.68;7.25;;;;;;;6.78;34.05;100519.03;10341387;28;20116;-80
2023/03/01 14:18:19;;;;;;;11.95;7.40;;;;;;;7.03;33.74;100507.72;10345314;28;20042;-80
2023/03/01 14:23:23;;;;;;;11.77;7.53;;;;;;;7.00;34.41;100506.97;10345014;28;20053;-80
2023/03/01 14:28:33;;;;;;;10.30;7.15;;;;;;;6.89;34.03;100511.72;10338222;28;20050;-80
2023/03/01 14:33:36;;;;;;;17.63;7.68;;;;;;;7.12;34.64;100511.75;10344940;28;20061;-79
2023/03/01 14:38:46;;;;;;;13.05;7.45;;;;;;;6.85;34.26;100508.38;10333314;28;20038;-80
2023/03/01 14:43:58;;;;;;;12.30;7.32;;;;;;;6.79;33.36;100508.59;10345874;28;20082;-80
2023/03/01 14:49:15;;;;;;;11.88;7.30;;;;;;;6.66;32.63;100503.84;10347236;28;20053;-79
2023/03/01 14:54:27;;;;;;;12.15;7.25;;;;;;;6.93;34.27;100498.56;10347259;28;20054;-80
2023/03/01 14:59:34;;;;;;;10.73;7.13;;;;;;;6.88;33.48;100495.25;10357033;28;20145;-80
2023/03/01 15:04:37;;;;;;;12.50;6.80;;;;;;;6.91;34.21;100481.31;10346982;28;20061;-80
2023/03/01 15:09:40;;;;;;;11.50;6.50;;;;;;;6.99;33.73;100474.94;10349460;28;20921;-80
2023/03/01 15:14:43;;;;;;;9.82;6.80;;;;;;;7.05;34.16;100466.03;10347505;28;20045;-81
2023/03/01 15:20:17;;;;;;;11.85;7.18;;;;;;;6.94;33.75;100465.56;10346807;28;20049;-81
2023/03/01 15:25:28;;;;;;;11.70;6.75;;;;;;;6.98;33.33;100459.34;10348892;28;20264;-82
2023/03/01 15:30:34;;;;;;;11.13;6.25;;;;;;;6.89;33.23;100455.38;10346252;28;20052;-82
2023/03/01 15:35:48;;;;;;;10.38;6.93;;;;;;;6.80;33.08;100460.03;10351175;28;20587;-82
2023/03/01 15:40:55;;;;;;;12.45;6.72;;;;;;;6.63;32.78;100452.84;10349960;28;20058;-82
2023/03/01 15:45:58;;;;;;;14.93;6.85;;;;;;;6.57;33.60;100449.63;10343966;28;20060;-82
2023/03/01 15:51:01;;;;;;;13.38;7.18;;;;;;;6.84;33.69;100446.88;10349113;28;20096;-82
2023/03/01 15:56:03;;;;;;;10.35;6.45;;;;;;;6.72;33.94;100446.47;10345093;28;20060;-81
2023/03/01 16:01:12;;;;;;;12.07;6.43;;;;;;;6.51;33.54;100448.06;10349886;28;20137;-82
2023/03/01 16:06:16;;;;;;;9.20;6.05;;;;;;;6.50;34.18;100450.72;10347492;28;20736;-82
2023/03/01 16:11:21;;;;;;;11.50;6.28;;;;;;;6.30;34.06;100454.03;10349287;28;20057;-80
2023/03/01 16:16:25;;;;;;;13.40;6.57;;;;;;;6.22;33.84;100462.03;10345296;28;20049;-79
2023/03/01 16:21:27;;;;;;;9.18;6.00;;;;;;;6.08;34.23;100466.81;10349974;28;20049;-81
2023/03/01 16:26:30;;;;;;;10.65;6.50;;;;;;;5.91;34.07;100468.28;10346955;28;20060;-80
2023/03/01 16:31:33;;;;;;;11.13;6.72;;;;;;;5.87;34.63;100464.94;10348357;28;20111;-80
2023/03/01 16:36:37;;;;;;;10.30;6.30;;;;;;;5.69;34.93;100469.84;10346895;28;20563;-81
2023/03/01 16:41:41;;;;;;;12.32;6.57;;;;;;;5.63;35.24;100481.28;10350240;28;20048;-81
2023/03/01 16:46:43;;;;;;;10.95;6.50;;;;;;;5.33;35.43;100480.44;10345300;28;20046;-81
2023/03/01 16:51:55;;;;;;;11.23;6.43;;;;;;;5.26;35.24;100472.91;10347919;28;20689;-81
2023/03/01 16:56:57;;;;;;;10.70;6.03;;;;;;;5.18;35.97;100470.56;10343406;28;20058;-81
2023/03/01 17:02:00;;;;;;;13.90;6.70;;;;;;;5.02;36.47;100478.81;10339524;28;20053;-81
2023/03/01 17:07:02;;;;;;;11.60;6.72;;;;;;;4.89;36.67;100480.88;10343437;28;20058;-80
2023/03/01 17:12:04;;;;;;;8.80;5.90;;;;;;;4.75;37.01;100484.75;10345698;28;20057;-80
2023/03/01 17:17:10;;;;;;;12.45;6.60;;;;;;;4.66;36.72;100494.47;10340764;28;20168;-80
2023/03/01 17:22:16;;;;;;;15.05;7.03;;;;;;;4.56;37.22;100508.56;10348317;28;20462;-79
2023/03/01 17:27:19;;;;;;;11.50;6.72;;;;;;;4.36;37.39;100504.78;10348073;28;20085;-80
2023/03/01 17:32:22;;;;;;;11.13;6.78;;;;;;;4.22;37.66;100507.72;10351126;28;20046;-80
2023/03/01 17:37:23;;;;;;;11.85;6.32;;;;;;;4.14;37.89;100520.00;10343252;28;20065;-79
2023/03/01 17:42:26;;;;;;;10.95;6.95;;;;;;;4.03;38.29;100524.56;10346643;28;20060;-80
2023/03/01 17:47:28;;;;;;;12.10;6.40;;;;;;;3.99;38.26;100517.75;10349261;28;20058;-79
2023/03/01 17:52:31;;;;;;;12.68;7.00;;;;;;;3.95;38.17;100517.88;10358858;28;20071;-79
2023/03/01 17:57:34;;;;;;;12.82;6.65;;;;;;;3.88;37.84;100522.38;10350565;28;20753;-79
2023/03/01 18:02:35;;;;;;;10.25;6.80;;;;;;;3.77;37.48;100521.72;10354533;28;20894;-79
2023/03/01 18:07:38;;;;;;;11.73;6.47;;;;;;;3.74;36.87;100516.63;10344509;28;20080;-79
2023/03/01 18:12:40;;;;;;;14.55;6.90;;;;;;;3.73;37.05;100518.34;10353823;28;20053;-79
2023/03/01 18:17:48;;;;;;;11.88;6.80;;;;;;;3.68;36.63;100521.94;10336903;28;20050;-79
2023/03/01 18:22:53;;;;;;;11.07;6.57;;;;;;;3.59;36.36;100522.13;10326003;28;20058;-79
2023/03/01 18:28:00;;;;;;;10.63;6.47;;;;;;;3.50;36.55;100509.38;10346153;28;20104;-79
2023/03/01 18:33:04;;;;;;;11.45;7.00;;;;;;;3.47;35.83;100514.63;10351379;28;20865;-79
2023/03/01 18:38:07;;;;;;;11.55;6.63;;;;;;;3.50;36.33;100518.00;10347449;28;20046;-80
2023/03/01 18:43:12;;;;;;;13.00;6.97;;;;;;;3.40;36.34;100515.63;10357012;28;20042;-79
2023/03/01 18:48:15;;;;;;;14.13;7.45;;;;;;;3.42;36.18;100513.88;10348184;28;20507;-78
2023/03/01 18:53:18;;;;;;;15.07;7.68;;;;;;;3.29;36.97;100512.44;10352534;28;20056;-79
2023/03/01 18:58:22;;;;;;;13.00;7.53;;;;;;;3.18;37.20;100519.56;10344217;28;20061;-79
2023/03/01 19:03:24;;;;;;;11.15;7.10;;;;;;;3.09;37.30;100504.25;10343168;28;20057;-79
2023/03/01 19:08:28;;;;;;;14.88;8.50;;;;;;;3.02;37.23;100495.75;10347184;28;20503;-80
2023/03/01 19:13:30;;;;;;;13.32;7.80;;;;;;;3.00;37.52;100485.47;10345342;28;20132;-79
2023/03/01 19:18:33;;;;;;;14.32;7.82;;;;;;;2.86;38.16;100469.41;10350190;28;20060;-79
2023/03/01 19:23:37;;;;;;;12.82;7.50;;;;;;;2.80;38.50;100466.06;10348329;28;20061;-79
2023/03/01 19:28:39;;;;;;;14.63;7.10;;;;;;;2.73;38.96;100467.94;10348050;28;20057;-79
2023/03/01 19:33:42;;;;;;;13.13;6.85;;;;;;;2.76;39.01;100478.22;10343146;28;20052;-80
2023/03/01 19:38:43;;;;;;;12.85;6.90;;;;;;;2.74;39.32;100486.84;10350079;28;20044;-79
2023/03/01 19:43:46;;;;;;;11.45;6.70;;;;;;;2.76;39.83;100500.59;10348819;28;20049;-80
2023/03/01 19:48:48;;;;;;;11.27;6.88;;;;;;;2.76;39.63;100511.78;10349085;28;20053;-80
2023/03/01 19:53:52;;;;;;;14.77;7.28;;;;;;;2.71;39.60;100500.69;10348594;28;20056;-79
2023/03/01 19:58:59;;;;;;;13.68;8.02;;;;;;;2.63;39.75;100499.09;10339610;28;20590;-79
2023/03/01 20:04:02;;;;;;;10.52;7.07;;;;;;;2.58;39.79;100493.19;10349020;28;20046;-78
2023/03/01 20:09:05;;;;;;;13.02;7.60;;;;;;;2.49;40.21;100499.38;10340678;28;20050;-79
2023/03/01 20:14:21;;;;;;;12.43;7.47;;;;;;;2.44;40.89;100511.50;10336070;28;20535;-80
2023/03/01 20:19:24;;;;;;;15.50;8.10;;;;;;;2.35;41.54;100511.66;10353352;28;20048;-78
2023/03/01 20:24:26;;;;;;;14.18;8.13;;;;;;;2.19;42.42;100520.56;10353442;28;20136;-78
2023/03/01 20:29:28;;;;;;;11.50;7.10;;;;;;;2.10;42.40;100520.69;10350976;28;20094;-78
2023/03/01 20:34:30;;;;;;;12.75;7.40;;;;;;;2.04;42.43;100525.94;10347989;28;20057;-78
2023/03/01 20:39:33;;;;;;;11.90;7.55;;;;;;;1.97;42.12;100514.03;10348635;28;20061;-79
2023/03/01 20:44:41;;;;;;;12.35;7.97;;;;;;;1.87;42.15;100508.16;10350072;28;20053;-79
2023/03/01 20:49:43;;;;;;;12.57;7.25;;;;;;;1.86;42.19;100510.75;10342028;28;20601;-78
2023/03/01 20:54:45;;;;;;;13.38;7.75;;;;;;;1.71;42.63;100508.41;10345793;28;20057;-78
2023/03/01 20:59:47;;;;;;;13.27;7.15;;;;;;;1.79;43.15;100496.25;10349268;28;20058;-78
2023/03/01 21:04:49;;;;;;;13.25;7.40;;;;;;;1.75;43.44;100510.06;10349095;28;20061;-79
2023/03/01 21:09:50;;;;;;;13.40;7.35;;;;;;;1.72;43.10;100512.69;10346416;28;20942;-78
2023/03/01 21:14:52;;;;;;;12.75;7.43;;;;;;;1.72;43.51;100513.56;10349182;28;20458;-78
2023/03/01 21:19:54;;;;;;;14.73;7.93;;;;;;;1.72;43.39;100516.13;10347012;28;20923;-79
2023/03/01 21:24:56;;;;;;;13.27;7.72;;;;;;;1.71;43.51;100511.84;10339130;28;20049;-78
2023/03/01 21:29:58;;;;;;;14.10;8.23;;;;;;;1.71;43.78;100510.97;10341530;28;20046;-78
2023/03/01 21:34:59;;;;;;;14.77;8.52;;;;;;;1.63;44.07;100498.19;10339129;28;20451;-78
2023/03/01 21:40:03;;;;;;;13.00;8.20;;;;;;;1.58;44.65;100505.16;10342944;28;20137;-79
2023/03/01 21:45:05;;;;;;;14.00;8.43;;;;;;;1.54;44.87;100502.66;10345899;28;20049;-79
2023/03/01 21:50:07;;;;;;;15.93;9.15;;;;;;;1.53;44.82;100508.66;10344546;28;20050;-79
2023/03/01 21:55:11;;;;;;;15.48;8.65;;;;;;;1.49;45.05;100507.84;10344751;28;20058;-78
2023/03/01 22:00:14;;;;;;;12.38;8.45;;;;;;;1.42;44.73;100513.13;10343747;28;20535;-80
2023/03/01 22:05:16;;;;;;;16.55;10.32;;;;;;;1.32;45.65;100508.09;10338249;28;20169;-80
2023/03/01 22:16:52;;;;;;;14.18;8.80;;;;;;;1.04;46.11;100506.72;10342940;28;20037;-80
2023/03/01 22:21:53;;;;;;;15.07;9.38;;;;;;;0.97;46.19;100505.09;10347400;28;20054;-80
2023/03/01 22:26:55;;;;;;;21.17;9.45;;;;;;;0.99;46.16;100502.50;10350299;28;20053;-80
2023/03/01 22:31:57;;;;;;;29.90;9.88;;;;;;;0.97;46.24;100497.34;10349354;28;20046;-80
2023/03/01 22:36:59;;;;;;;17.85;9.07;;;;;;;0.93;46.25;100498.25;10345978;28;20058;-80
2023/03/01 22:42:01;;;;;;;18.95;9.10;;;;;;;0.83;47.06;100506.13;10353957;28;20048;-80
2023/03/01 22:47:03;;;;;;;19.63;9.40;;;;;;;0.75;46.86;100505.38;10350879;28;20058;-80
2023/03/01 22:52:04;;;;;;;15.82;9.10;;;;;;;0.78;46.86;100501.03;10348463;28;20046;-81
2023/03/01 22:57:07;;;;;;;17.10;9.27;;;;;;;0.75;47.36;100503.63;10347089;28;20073;-80
2023/03/01 23:02:09;;;;;;;17.17;9.93;;;;;;;0.67;47.44;100495.13;10346137;28;20057;-80
2023/03/01 23:07:11;;;;;;;16.80;9.63;;;;;;;0.58;47.22;100504.69;10345157;28;20053;-80
2023/03/01 23:12:13;;;;;;;18.20;10.10;;;;;;;0.57;47.21;100506.41;10350039;28;20638;-80
2023/03/01 23:17:14;;;;;;;17.00;10.38;;;;;;;0.53;47.53;100497.00;10350875;28;20046;-80
2023/03/01 23:22:17;;;;;;;15.57;9.88;;;;;;;0.48;47.51;100497.03;10349442;28;20038;-80